Terminal Aerodrome Forecast
Issued by NWS Charleston, WV

Current Version | Previous Version | Text Only | Print | Product List | Glossary Off
Versions: 1 2 3 4 5 6 7 8 9 10 11 12 13 14 15 16 17 18 19 20 21 22 23 24

000
FTUS41 KRLX 290642 AAA
TAFEKN
TAF AMD
KEKN 290642Z 2907/3006 00000KT 3SM BR SCT002
     FM290800 00000KT 1SM BR FEW001
     FM290900 00000KT 1/4SM FG VV001
     FM291300 00000KT 3SM BR FEW025
     FM291400 00000KT P6SM SCT040=

USA.gov is the U.S. government's official web portal to all federal, state and local government web resources and services.